createdAt,value
2023-04-04T00:00:39.421Z,13.29
2023-04-04T00:03:06.879Z,13.28
2023-04-04T00:05:35.870Z,13.25
2023-04-04T00:08:04.264Z,13.20
2023-04-04T00:10:31.547Z,13.20
2023-04-04T00:12:59.239Z,13.21
2023-04-04T00:15:26.580Z,13.22
2023-04-04T00:17:55.088Z,13.24
2023-04-04T00:20:22.174Z,13.21
2023-04-04T00:22:49.373Z,13.19
2023-04-04T00:25:16.449Z,13.18
2023-04-04T00:27:44.011Z,13.14
2023-04-04T00:30:12.564Z,13.10
2023-04-04T00:32:39.943Z,13.04
2023-04-04T00:35:08.235Z,12.98
2023-04-04T00:37:35.975Z,12.90
2023-04-04T00:40:04.330Z,12.85
2023-04-04T00:42:31.491Z,12.85
2023-04-04T00:44:58.627Z,12.83
2023-04-04T00:47:30.071Z,12.83
2023-04-04T00:49:57.268Z,12.85
2023-04-04T00:52:24.558Z,12.91
2023-04-04T00:54:52.164Z,13.00
2023-04-04T00:57:19.626Z,13.02
2023-04-04T00:59:47.379Z,13.01
2023-04-04T01:02:14.860Z,12.99
2023-04-04T01:04:42.939Z,12.98
2023-04-04T01:07:10.402Z,12.96
2023-04-04T01:09:37.924Z,12.91
2023-04-04T01:12:05.155Z,12.91
2023-04-04T01:14:33.574Z,12.82
2023-04-04T01:17:03.437Z,12.74
2023-04-04T01:19:35.225Z,12.67
2023-04-04T01:22:08.645Z,12.68
2023-04-04T01:24:36.780Z,12.66
2023-04-04T01:27:05.704Z,12.64
2023-04-04T01:29:37.554Z,12.59
2023-04-04T01:32:13.523Z,12.57
2023-04-04T01:34:55.966Z,12.53
2023-04-04T01:38:04.402Z,12.44
2023-04-04T01:40:37.534Z,12.36
2023-04-04T01:43:07.378Z,12.27
2023-04-04T01:45:36.565Z,12.19
2023-04-04T01:48:09.333Z,12.14
2023-04-04T01:50:36.518Z,12.06
2023-04-04T01:53:03.743Z,12.01
2023-04-04T01:55:30.872Z,11.93
2023-04-04T01:57:58.603Z,11.82
2023-04-04T02:00:26.265Z,11.77
2023-04-04T02:02:53.251Z,11.73
2023-04-04T02:05:20.338Z,11.68
2023-04-04T02:07:49.902Z,11.64
2023-04-04T02:10:26.843Z,11.61
2023-04-04T02:12:54.061Z,11.57
2023-04-04T02:15:24.030Z,11.56
2023-04-04T02:17:51.432Z,11.51
2023-04-04T02:20:19.615Z,11.43
2023-04-04T02:22:54.341Z,11.37
2023-04-04T02:25:23.520Z,11.40
2023-04-04T02:27:50.708Z,11.39
2023-04-04T02:30:18.293Z,11.43
2023-04-04T02:32:47.356Z,11.39
2023-04-04T02:35:17.841Z,11.39
2023-04-04T02:37:48.881Z,11.35
2023-04-04T02:40:23.615Z,11.31
2023-04-04T02:42:51.267Z,11.36
2023-04-04T02:45:19.755Z,11.37
2023-04-04T02:47:56.273Z,11.40
2023-04-04T02:50:29.477Z,11.34
2023-04-04T02:53:04.692Z,11.24
2023-04-04T02:55:34.948Z,11.23
2023-04-04T02:58:03.277Z,11.22
2023-04-04T03:00:30.491Z,11.20
2023-04-04T03:02:58.306Z,11.18
2023-04-04T03:05:32.151Z,11.15
2023-04-04T03:08:00.432Z,11.19
2023-04-04T03:10:30.251Z,11.24
2023-04-04T03:12:58.179Z,11.27
2023-04-04T03:15:27.785Z,11.21
2023-04-04T03:17:55.126Z,11.19
2023-04-04T03:20:26.569Z,11.18
2023-04-04T03:22:53.823Z,11.22
2023-04-04T03:25:21.341Z,11.17
2023-04-04T03:27:48.438Z,11.16
2023-04-04T03:30:22.176Z,11.20
2023-04-04T03:32:51.058Z,11.27
2023-04-04T03:35:18.447Z,11.31
2023-04-04T03:37:45.521Z,11.31
2023-04-04T03:40:13.677Z,11.28
2023-04-04T03:42:41.728Z,11.21
2023-04-04T03:45:11.881Z,11.20
2023-04-04T03:47:41.223Z,11.16
2023-04-04T03:50:08.854Z,11.11
2023-04-04T03:52:42.411Z,11.07
2023-04-04T03:55:10.102Z,11.03
2023-04-04T03:57:37.850Z,11.06
2023-04-04T04:00:10.057Z,11.07
2023-04-04T04:02:40.679Z,11.10
2023-04-04T04:05:09.958Z,11.13
2023-04-04T04:07:37.008Z,11.16
2023-04-04T04:10:05.601Z,11.14
2023-04-04T04:12:33.251Z,11.15
2023-04-04T04:15:00.601Z,11.11
2023-04-04T04:17:30.373Z,11.12
2023-04-04T04:19:57.607Z,11.12
2023-04-04T04:22:26.289Z,11.08
2023-04-04T04:24:53.382Z,11.07
2023-04-04T04:27:20.591Z,11.09
2023-04-04T04:29:48.038Z,11.11
2023-04-04T04:32:19.182Z,11.12
2023-04-04T04:34:50.100Z,11.14
2023-04-04T04:37:21.852Z,11.20
2023-04-04T04:39:53.346Z,11.33
2023-04-04T04:42:45.749Z,11.55
2023-04-04T04:45:15.805Z,11.74
2023-04-04T04:47:47.654Z,11.81
2023-04-04T04:50:18.083Z,11.89
2023-04-04T04:52:52.103Z,12.03
2023-04-04T04:55:19.393Z,12.24
2023-04-04T04:57:54.827Z,12.58
2023-04-04T05:00:26.193Z,12.69
2023-04-04T05:02:56.391Z,12.71
2023-04-04T05:05:36.973Z,12.62
2023-04-04T05:08:08.666Z,12.55
2023-04-04T05:10:40.528Z,12.53
2023-04-04T05:13:10.102Z,12.66
2023-04-04T05:15:42.974Z,12.78
2023-04-04T05:18:10.344Z,12.82
2023-04-04T05:20:38.631Z,13.18
2023-04-04T05:23:07.894Z,14.37
2023-04-04T05:25:39.487Z,15.80
2023-04-04T05:28:08.160Z,16.71
2023-04-04T05:30:37.601Z,17.79
2023-04-04T05:33:12.495Z,18.84
2023-04-04T05:35:44.073Z,18.89
2023-04-04T05:38:11.461Z,18.11
2023-04-04T05:40:39.117Z,17.73
2023-04-04T05:43:11.388Z,17.99
2023-04-04T05:45:51.982Z,17.36
2023-04-04T05:48:19.615Z,17.45
2023-04-04T05:50:49.993Z,17.40
2023-04-04T05:53:21.163Z,17.35
2023-04-04T05:55:54.074Z,17.48
2023-04-04T05:58:27.521Z,17.99
2023-04-04T06:00:57.665Z,18.48
2023-04-04T06:03:25.073Z,19.20
2023-04-04T06:05:53.602Z,20.66
2023-04-04T06:08:21.118Z,21.49
2023-04-04T06:10:48.207Z,21.65
2023-04-04T06:13:15.252Z,21.25
2023-04-04T06:15:46.403Z,21.32
2023-04-04T06:18:13.711Z,21.54
2023-04-04T06:20:41.793Z,21.25
2023-04-04T06:23:10.309Z,21.74
2023-04-04T06:25:41.788Z,22.29
2023-04-04T06:28:09.262Z,22.47
2023-04-04T06:30:40.877Z,22.92
2023-04-04T06:33:08.941Z,23.45
2023-04-04T06:35:41.559Z,23.11
2023-04-04T06:38:09.824Z,23.42
2023-04-04T06:40:37.342Z,24.20
2023-04-04T06:43:05.288Z,25.07
2023-04-04T06:45:45.420Z,24.76
2023-04-04T06:48:12.628Z,25.50
2023-04-04T06:50:40.022Z,25.01
2023-04-04T06:53:12.067Z,25.98
2023-04-04T06:55:39.560Z,26.10
2023-04-04T06:58:06.842Z,26.61
2023-04-04T07:00:34.450Z,27.05
2023-04-04T07:03:01.713Z,27.08
2023-04-04T07:05:29.424Z,26.50
2023-04-04T07:07:57.231Z,26.12
2023-04-04T07:10:25.659Z,25.64
2023-04-04T07:12:53.025Z,25.98
2023-04-04T07:15:20.125Z,26.35
2023-04-04T07:17:47.465Z,25.88
2023-04-04T07:20:14.593Z,25.52
2023-04-04T07:22:42.670Z,25.30
2023-04-04T07:25:10.047Z,23.84
2023-04-04T07:27:37.584Z,24.39
2023-04-04T07:30:05.258Z,24.45
2023-04-04T07:32:32.537Z,24.74
2023-04-04T07:34:59.700Z,24.73
2023-04-04T07:37:26.920Z,24.59
2023-04-04T07:39:54.058Z,23.48
2023-04-04T07:42:23.455Z,22.66
2023-04-04T07:44:51.234Z,22.94
2023-04-04T07:47:18.905Z,22.48
2023-04-04T07:49:46.157Z,22.36
2023-04-04T07:52:13.638Z,22.36
2023-04-04T07:54:40.884Z,20.96
2023-04-04T07:57:10.085Z,20.96
2023-04-04T07:59:37.985Z,21.82
2023-04-04T08:02:05.120Z,21.87
2023-04-04T08:04:32.345Z,21.66
2023-04-04T08:07:00.319Z,21.96
2023-04-04T08:09:31.511Z,21.45
2023-04-04T08:11:58.596Z,21.58
2023-04-04T08:14:25.824Z,21.25
2023-04-04T08:16:52.940Z,21.85
2023-04-04T08:19:20.572Z,21.01
2023-04-04T08:21:47.607Z,21.38
2023-04-04T08:24:14.868Z,21.04
2023-04-04T08:26:45.046Z,20.82
2023-04-04T08:29:14.170Z,19.77
2023-04-04T08:31:41.583Z,18.24
2023-04-04T08:34:08.834Z,17.87
2023-04-04T08:36:36.047Z,17.82
2023-04-04T08:39:03.960Z,17.94
2023-04-04T08:41:35.025Z,17.74
2023-04-04T08:44:04.491Z,17.70
2023-04-04T08:46:32.709Z,17.61
2023-04-04T08:49:01.438Z,17.42
2023-04-04T08:51:31.913Z,17.31
2023-04-04T08:54:00.814Z,17.28
2023-04-04T08:56:28.820Z,17.16
2023-04-04T08:58:56.128Z,17.19
2023-04-04T09:01:23.718Z,17.29
2023-04-04T09:03:52.342Z,17.13
2023-04-04T09:06:20.146Z,17.14
2023-04-04T09:08:47.757Z,17.18
2023-04-04T09:11:16.828Z,17.14
2023-04-04T09:13:45.519Z,17.18
2023-04-04T09:16:13.537Z,17.26
2023-04-04T09:18:40.625Z,17.01
2023-04-04T09:21:12.211Z,17.16
2023-04-04T09:23:39.909Z,17.17
2023-04-04T09:26:07.145Z,17.19
2023-04-04T09:28:35.606Z,17.19
2023-04-04T09:31:05.838Z,17.22
2023-04-04T09:33:34.545Z,17.23
2023-04-04T09:36:11.332Z,17.17
2023-04-04T09:38:45.663Z,17.06
2023-04-04T09:41:17.015Z,16.67
2023-04-04T09:43:47.798Z,16.60
2023-04-04T09:46:19.158Z,16.45
2023-04-04T09:48:50.958Z,16.94
2023-04-04T09:51:17.978Z,17.01
2023-04-04T09:53:48.795Z,17.14
2023-04-04T09:56:16.927Z,17.51
2023-04-04T09:59:02.729Z,17.36
2023-04-04T10:01:30.914Z,17.43
2023-04-04T10:03:58.617Z,17.61
2023-04-04T10:06:26.997Z,18.05
2023-04-04T10:08:54.668Z,18.34
2023-04-04T10:11:33.646Z,17.49
2023-04-04T10:14:04.229Z,17.20
2023-04-04T10:16:37.529Z,17.47
2023-04-04T10:19:05.939Z,17.41
2023-04-04T10:21:34.897Z,17.34
2023-04-04T10:24:09.306Z,17.26
2023-04-04T10:26:37.503Z,17.73
2023-04-04T10:29:06.290Z,17.20
2023-04-04T10:31:38.502Z,17.20
2023-04-04T10:34:15.551Z,17.61
2023-04-04T10:36:46.624Z,17.81
2023-04-04T10:39:26.602Z,17.71
2023-04-04T10:41:55.499Z,17.63
2023-04-04T10:44:39.119Z,17.51
2023-04-04T10:47:14.947Z,17.36
2023-04-04T10:49:46.926Z,17.38
2023-04-04T10:52:20.070Z,17.42
2023-04-04T10:54:50.202Z,17.19
2023-04-04T10:57:18.161Z,17.26
2023-04-04T11:00:08.019Z,17.55
2023-04-04T11:02:53.250Z,17.71
2023-04-04T11:05:51.723Z,17.02
2023-04-04T11:08:22.533Z,16.93
2023-04-04T11:10:51.441Z,16.76
2023-04-04T11:13:22.877Z,16.52
2023-04-04T11:16:07.701Z,16.37
2023-04-04T11:18:45.511Z,16.19
2023-04-04T11:21:23.915Z,16.16
2023-04-04T11:24:00.600Z,16.09
2023-04-04T11:26:33.715Z,15.68
2023-04-04T11:29:04.120Z,15.95
2023-04-04T11:31:40.588Z,16.22
2023-04-04T11:34:15.454Z,16.39
2023-04-04T11:36:45.110Z,16.51
2023-04-04T11:39:19.922Z,16.64
2023-04-04T11:42:07.088Z,16.59
2023-04-04T11:44:41.735Z,16.34
2023-04-04T11:47:11.939Z,16.21
2023-04-04T11:49:41.845Z,16.01
2023-04-04T11:52:14.215Z,15.82
2023-04-04T11:54:43.888Z,15.78
2023-04-04T11:57:19.403Z,15.80
2023-04-04T11:59:48.885Z,15.63
2023-04-04T12:02:19.704Z,15.47
2023-04-04T12:04:47.661Z,15.16
2023-04-04T12:07:16.257Z,15.12
2023-04-04T12:09:44.395Z,15.14
2023-04-04T12:12:17.547Z,15.01
2023-04-04T12:14:45.063Z,15.06
2023-04-04T12:17:12.311Z,15.37
2023-04-04T12:19:40.555Z,15.61
2023-04-04T12:22:08.602Z,15.66
2023-04-04T12:24:36.558Z,15.80
2023-04-04T12:27:04.385Z,15.86
2023-04-04T12:29:39.219Z,15.78
2023-04-04T12:32:07.775Z,15.83
2023-04-04T12:34:36.587Z,15.87
2023-04-04T12:37:04.277Z,15.87
2023-04-04T12:39:31.546Z,15.99
2023-04-04T12:42:03.954Z,15.97
2023-04-04T12:44:33.880Z,16.07
2023-04-04T12:47:07.420Z,16.12
2023-04-04T12:49:43.258Z,16.31
2023-04-04T12:52:39.584Z,16.42
2023-04-04T12:55:10.782Z,16.64
2023-04-04T12:57:40.053Z,16.54
2023-04-04T13:00:09.337Z,16.33
2023-04-04T13:02:37.987Z,16.15
2023-04-04T13:05:07.809Z,16.09
2023-04-04T13:07:43.481Z,16.11
2023-04-04T13:10:17.836Z,16.31
2023-04-04T13:12:59.067Z,16.70
2023-04-04T13:15:48.505Z,16.57
2023-04-04T13:18:18.273Z,16.67
2023-04-04T13:20:45.542Z,16.32
2023-04-04T13:23:13.675Z,16.29
2023-04-04T13:25:41.351Z,16.27
2023-04-04T13:28:09.085Z,16.25
2023-04-04T13:30:36.618Z,16.24
2023-04-04T13:33:03.882Z,16.15
2023-04-04T13:35:31.903Z,16.10
2023-04-04T13:41:02.149Z,15.98
2023-04-04T13:43:29.537Z,15.77
2023-04-04T13:45:56.582Z,15.65
2023-04-04T13:48:23.565Z,15.61
2023-04-04T13:50:55.512Z,15.61
2023-04-04T13:53:22.872Z,15.44
2023-04-04T13:56:13.011Z,15.28
2023-04-04T13:58:37.005Z,15.16
2023-04-04T14:01:07.314Z,15.14
2023-04-04T14:03:35.071Z,15.14
2023-04-04T14:06:09.789Z,15.25
2023-04-04T14:08:38.295Z,15.24
2023-04-04T14:11:06.894Z,15.22
2023-04-04T14:13:33.996Z,15.20
2023-04-04T14:16:01.069Z,15.06
2023-04-04T14:18:28.238Z,14.99
2023-04-04T14:20:55.559Z,14.97
2023-04-04T14:23:22.815Z,14.85
2023-04-04T14:25:52.606Z,14.85
2023-04-04T14:28:19.750Z,14.89
2023-04-04T14:30:46.880Z,14.57
2023-04-04T14:33:14.428Z,13.98
2023-04-04T14:35:42.087Z,13.83
2023-04-04T14:38:09.561Z,13.54
2023-04-04T14:40:36.691Z,13.26
2023-04-04T14:43:03.736Z,13.05
2023-04-04T14:45:32.325Z,12.95
2023-04-04T14:47:59.356Z,12.86
2023-04-04T14:50:26.574Z,12.86
2023-04-04T14:52:56.649Z,12.96
2023-04-04T14:55:24.748Z,13.05
2023-04-04T14:58:01.788Z,13.13
2023-04-04T15:00:31.069Z,13.24
2023-04-04T15:02:58.320Z,13.40
2023-04-04T15:05:26.255Z,13.55
2023-04-04T15:10:42.547Z,13.93
2023-04-04T15:13:10.007Z,13.94
2023-04-04T15:15:37.112Z,13.90
2023-04-04T15:18:04.189Z,13.88
2023-04-04T15:20:31.434Z,13.87
2023-04-04T15:22:58.399Z,13.92
2023-04-04T15:25:25.633Z,13.94
2023-04-04T15:27:52.638Z,13.88
2023-04-04T15:30:19.886Z,13.92
2023-04-04T15:32:47.058Z,13.93
2023-04-04T15:35:19.778Z,13.92
2023-04-04T15:37:49.186Z,13.93
2023-04-04T15:40:16.896Z,13.91
2023-04-04T15:42:44.912Z,13.96
2023-04-04T15:45:14.190Z,13.99
2023-04-04T15:47:42.632Z,14.13
2023-04-04T15:50:11.129Z,14.20
2023-04-04T15:52:38.789Z,14.27
2023-04-04T15:55:12.448Z,14.34
2023-04-04T15:57:39.828Z,14.26
2023-04-04T16:00:07.779Z,14.18
2023-04-04T16:02:35.185Z,14.23
2023-04-04T16:05:03.081Z,14.06
2023-04-04T16:07:30.932Z,13.99
2023-04-04T16:10:02.048Z,13.94
2023-04-04T16:12:29.801Z,13.89
2023-04-04T16:14:57.151Z,13.87
2023-04-04T16:17:26.330Z,13.83
2023-04-04T16:19:53.951Z,13.78
2023-04-04T16:22:21.376Z,13.82
2023-04-04T16:24:48.546Z,13.88
2023-04-04T16:27:15.952Z,13.92
2023-04-04T16:29:43.089Z,13.97
2023-04-04T16:32:10.465Z,14.07
2023-04-04T16:34:38.963Z,14.16
2023-04-04T16:37:06.253Z,14.17
2023-04-04T16:39:34.416Z,14.14
2023-04-04T16:42:01.446Z,14.14
2023-04-04T16:44:28.649Z,14.11
2023-04-04T16:46:56.685Z,14.01
2023-04-04T16:49:24.034Z,13.89
2023-04-04T16:51:51.062Z,13.78
2023-04-04T16:54:18.283Z,13.71
2023-04-04T16:56:45.358Z,13.67
2023-04-04T16:59:12.632Z,13.63
2023-04-04T17:01:39.719Z,13.61
2023-04-04T17:04:08.476Z,13.54
2023-04-04T17:06:35.623Z,13.48
2023-04-04T17:09:02.788Z,13.40
2023-04-04T17:11:29.936Z,13.34
2023-04-04T17:13:57.211Z,13.28
2023-04-04T17:16:26.343Z,13.25
2023-04-04T17:18:53.609Z,13.20
2023-04-04T17:21:20.653Z,13.12
2023-04-04T17:23:47.868Z,13.06
2023-04-04T17:26:14.919Z,13.00
2023-04-04T17:28:42.614Z,12.98
2023-04-04T17:31:09.785Z,12.93
2023-04-04T17:33:36.772Z,12.90
2023-04-04T17:36:03.996Z,12.87
2023-04-04T17:38:31.059Z,12.85
2023-04-04T17:41:00.848Z,12.84
2023-04-04T17:43:27.925Z,12.86
2023-04-04T17:45:55.098Z,12.88
2023-04-04T17:48:23.584Z,12.92
2023-04-04T17:50:51.688Z,12.94
2023-04-04T17:53:19.211Z,12.96
2023-04-04T17:55:46.241Z,13.00
2023-04-04T17:58:13.295Z,13.04
2023-04-04T18:00:40.611Z,13.07
2023-04-04T18:03:08.144Z,13.11
2023-04-04T18:05:35.395Z,13.12
2023-04-04T18:08:04.931Z,13.18
2023-04-04T18:10:32.416Z,13.24
2023-04-04T18:12:59.574Z,13.27
2023-04-04T18:15:26.600Z,13.34
2023-04-04T18:17:53.690Z,13.34
2023-04-04T18:20:33.925Z,13.36
2023-04-04T18:23:02.063Z,13.36
2023-04-04T18:25:30.046Z,13.40
2023-04-04T18:27:57.266Z,13.41
2023-04-04T18:30:24.652Z,13.41
2023-04-04T18:32:51.806Z,13.40
2023-04-04T18:35:19.051Z,13.36
2023-04-04T18:37:46.310Z,13.36
2023-04-04T18:40:13.386Z,13.33
2023-04-04T18:42:41.182Z,13.27
2023-04-04T18:45:08.555Z,13.21
2023-04-04T18:47:36.939Z,13.15
2023-04-04T18:50:04.323Z,13.15
2023-04-04T18:52:31.405Z,13.14
2023-04-04T18:54:58.653Z,13.09
2023-04-04T18:57:25.713Z,13.04
2023-04-04T18:59:52.839Z,12.98
2023-04-04T19:02:19.845Z,12.90
2023-04-04T19:04:47.952Z,12.87
2023-04-04T19:07:22.127Z,12.87
2023-04-04T19:09:50.624Z,12.83
2023-04-04T19:12:17.967Z,12.84
2023-04-04T19:14:45.158Z,12.82
2023-04-04T19:17:15.620Z,12.76
2023-04-04T19:19:43.533Z,12.70
2023-04-04T19:22:10.717Z,12.69
2023-04-04T19:24:40.385Z,12.66
2023-04-04T19:27:07.841Z,12.64
2023-04-04T19:29:36.191Z,12.64
2023-04-04T19:32:14.297Z,12.62
2023-04-04T19:34:44.680Z,12.62
2023-04-04T19:37:13.055Z,12.60
2023-04-04T19:39:42.367Z,12.61
2023-04-04T19:42:10.635Z,12.59
2023-04-04T19:44:41.606Z,12.57
2023-04-04T19:47:21.183Z,12.56
2023-04-04T19:49:52.988Z,12.56
2023-04-04T19:52:23.402Z,12.57
2023-04-04T19:54:50.712Z,12.57
2023-04-04T19:57:22.411Z,12.56
2023-04-04T20:00:12.881Z,12.51
2023-04-04T20:02:50.278Z,12.42
2023-04-04T20:05:29.679Z,12.35
2023-04-04T20:07:56.895Z,12.30
2023-04-04T20:10:41.747Z,12.25
2023-04-04T20:13:09.748Z,12.19
2023-04-04T20:15:48.854Z,12.17
2023-04-04T20:18:24.429Z,12.16
2023-04-04T20:20:59.937Z,12.14
2023-04-04T20:23:28.121Z,12.10
2023-04-04T20:25:55.956Z,12.06
2023-04-04T20:28:28.152Z,12.04
2023-04-04T20:30:55.646Z,12.05
2023-04-04T20:33:37.589Z,12.05
2023-04-04T20:36:12.644Z,12.03
2023-04-04T20:38:41.710Z,12.02
2023-04-04T20:41:20.859Z,11.91
2023-04-04T20:43:57.871Z,11.81
2023-04-04T20:46:26.694Z,11.72
2023-04-04T20:48:56.901Z,11.63
2023-04-04T20:51:25.218Z,11.55
2023-04-04T20:53:55.341Z,11.56
2023-04-04T20:56:45.749Z,11.60
2023-04-04T20:59:31.433Z,11.61
2023-04-04T21:02:10.461Z,11.58
2023-04-04T21:04:38.361Z,11.55
2023-04-04T21:07:06.900Z,11.55
2023-04-04T21:09:33.972Z,11.60
2023-04-04T21:12:05.076Z,11.64
2023-04-04T21:14:36.767Z,11.67
2023-04-04T21:17:07.062Z,11.67
2023-04-04T21:19:34.351Z,11.68
2023-04-04T21:22:01.380Z,11.65
2023-04-04T21:24:34.585Z,11.64
2023-04-04T21:27:05.287Z,11.61
2023-04-04T21:29:32.411Z,11.60
2023-04-04T21:32:00.258Z,11.60
2023-04-04T21:34:28.073Z,11.57
2023-04-04T21:37:01.576Z,11.55
2023-04-04T21:39:30.187Z,11.55
2023-04-04T21:42:07.971Z,11.51
2023-04-04T21:44:35.946Z,11.51
2023-04-04T21:47:03.083Z,11.54
2023-04-04T21:49:30.265Z,11.53
2023-04-04T21:51:57.238Z,11.53
2023-04-04T21:54:24.403Z,11.51
2023-04-04T21:56:51.443Z,11.50
2023-04-04T21:59:18.671Z,11.49
2023-04-04T22:01:45.866Z,11.49
2023-04-04T22:04:12.963Z,11.50
2023-04-04T22:06:43.186Z,11.53
2023-04-04T22:09:10.910Z,11.56
2023-04-04T22:11:42.871Z,11.56
2023-04-04T22:14:10.043Z,11.61
2023-04-04T22:16:40.332Z,11.62
2023-04-04T22:19:11.502Z,11.66
2023-04-04T22:21:39.560Z,11.70
2023-04-04T22:24:07.240Z,11.70
2023-04-04T22:26:34.568Z,11.66
2023-04-04T22:29:04.329Z,11.60
2023-04-04T22:31:34.575Z,11.57
2023-04-04T22:34:03.661Z,11.51
2023-04-04T22:36:31.094Z,11.51
2023-04-04T22:38:58.504Z,11.51
2023-04-04T22:41:28.126Z,11.53
2023-04-04T22:43:56.706Z,11.55
2023-04-04T22:46:26.049Z,11.59
2023-04-04T22:49:05.612Z,11.59
2023-04-04T22:51:43.533Z,11.59
2023-04-04T22:54:13.243Z,11.60
2023-04-04T22:56:40.839Z,11.57
2023-04-04T22:59:07.892Z,11.57
2023-04-04T23:01:35.008Z,11.57
2023-04-04T23:04:02.159Z,11.58
2023-04-04T23:06:29.728Z,11.60
2023-04-04T23:08:56.839Z,11.59
2023-04-04T23:11:23.914Z,11.54
2023-04-04T23:13:52.084Z,11.53
2023-04-04T23:16:19.325Z,11.49
2023-04-04T23:18:46.542Z,11.47
2023-04-04T23:21:13.643Z,11.44
2023-04-04T23:23:40.907Z,11.43
2023-04-04T23:26:08.296Z,11.40
2023-04-04T23:28:35.620Z,11.40
2023-04-04T23:31:02.710Z,11.37
2023-04-04T23:33:29.774Z,11.33
2023-04-04T23:35:56.928Z,11.30
2023-04-04T23:38:24.145Z,11.26
2023-04-04T23:40:51.254Z,11.25
2023-04-04T23:43:18.410Z,11.24
2023-04-04T23:45:45.604Z,11.24
2023-04-04T23:48:12.653Z,11.23
2023-04-04T23:50:41.587Z,11.19
2023-04-04T23:53:08.923Z,11.17
2023-04-04T23:55:36.073Z,11.17
2023-04-04T23:58:03.713Z,11.15
